createdAt,value
2018-10-21T00:02:13.261Z,11.63
2018-10-21T00:04:40.777Z,11.57
2018-10-21T00:07:08.327Z,11.63
2018-10-21T00:09:35.844Z,12.13
2018-10-21T00:12:03.628Z,11.77
2018-10-21T00:14:31.152Z,12.33
2018-10-21T00:16:58.724Z,12.47
2018-10-21T00:19:26.233Z,12.67
2018-10-21T00:21:53.785Z,12.77
2018-10-21T00:24:21.280Z,12.97
2018-10-21T00:26:48.805Z,12.27
2018-10-21T00:29:16.316Z,13.10
2018-10-21T00:31:43.856Z,13.00
2018-10-21T00:34:11.374Z,12.87
2018-10-21T00:36:38.900Z,13.00
2018-10-21T00:39:09.035Z,13.47
2018-10-21T00:41:36.556Z,13.83
2018-10-21T00:44:04.373Z,13.57
2018-10-21T00:46:31.947Z,13.40
2018-10-21T00:48:59.521Z,12.23
2018-10-21T00:51:27.053Z,12.90
2018-10-21T00:53:54.601Z,12.30
2018-10-21T00:56:22.151Z,12.40
2018-10-21T00:58:49.705Z,12.60
2018-10-21T01:01:17.308Z,13.03
2018-10-21T01:03:44.868Z,13.67
2018-10-21T01:06:12.452Z,13.07
2018-10-21T01:08:40.036Z,13.40
2018-10-21T01:11:07.569Z,12.80
2018-10-21T01:13:35.269Z,12.33
2018-10-21T01:16:02.856Z,12.33
2018-10-21T01:18:30.409Z,12.83
2018-10-21T01:20:57.994Z,12.97
2018-10-21T01:23:25.535Z,12.53
2018-10-21T01:25:53.076Z,12.93
2018-10-21T01:28:20.636Z,12.07
2018-10-21T01:30:48.180Z,12.93
2018-10-21T01:33:15.782Z,13.37
2018-10-21T01:35:43.293Z,13.73
2018-10-21T01:38:10.889Z,13.60
2018-10-21T01:40:44.459Z,13.77
2018-10-21T01:43:13.868Z,13.50
2018-10-21T01:45:41.460Z,13.90
2018-10-21T01:48:10.121Z,13.27
2018-10-21T01:50:37.692Z,13.70
2018-10-21T01:53:06.468Z,13.80
2018-10-21T01:55:33.999Z,13.00
2018-10-21T01:58:01.852Z,13.00
2018-10-21T02:00:30.048Z,13.50
2018-10-21T02:02:58.192Z,13.23
2018-10-21T02:05:26.000Z,13.30
2018-10-21T02:07:53.874Z,13.30
2018-10-21T02:10:21.423Z,13.60
2018-10-21T02:12:49.000Z,13.33
2018-10-21T02:15:16.635Z,13.53
2018-10-21T02:17:44.129Z,13.23
2018-10-21T02:20:12.684Z,13.23
2018-10-21T02:22:41.082Z,12.87
2018-10-21T02:25:08.655Z,12.70
2018-10-21T02:27:36.812Z,13.27
2018-10-21T02:30:08.229Z,13.90
2018-10-21T02:32:35.999Z,13.53
2018-10-21T02:35:04.734Z,13.47
2018-10-21T02:37:32.289Z,13.73
2018-10-21T02:39:59.845Z,14.33
2018-10-21T02:42:27.392Z,14.17
2018-10-21T02:44:54.960Z,13.10
2018-10-21T02:47:22.496Z,13.00
2018-10-21T02:49:50.021Z,13.33
2018-10-21T02:52:17.541Z,13.43
2018-10-21T02:54:45.071Z,12.80
2018-10-21T02:57:13.651Z,12.87
2018-10-21T02:59:41.096Z,14.23
2018-10-21T03:02:08.629Z,13.90
2018-10-21T03:04:36.142Z,14.47
2018-10-21T03:07:03.661Z,14.57
2018-10-21T03:09:31.460Z,14.97
2018-10-21T03:11:59.136Z,13.80
2018-10-21T03:14:26.648Z,13.50
2018-10-21T03:16:54.198Z,14.30
2018-10-21T03:19:21.708Z,14.20
2018-10-21T03:21:49.216Z,15.00
2018-10-21T03:24:17.041Z,13.50
2018-10-21T03:26:45.316Z,13.00
2018-10-21T03:29:12.860Z,14.53
2018-10-21T03:31:40.387Z,14.60
2018-10-21T03:34:07.951Z,14.70
2018-10-21T03:36:35.415Z,14.30
2018-10-21T03:39:04.663Z,14.00
2018-10-21T03:41:32.176Z,13.60
2018-10-21T03:43:59.676Z,15.10
2018-10-21T03:46:27.223Z,14.90
2018-10-21T03:48:54.768Z,15.70
2018-10-21T03:51:22.312Z,14.87
2018-10-21T03:53:49.853Z,14.43
2018-10-21T03:56:17.398Z,14.97
2018-10-21T03:58:44.936Z,16.47
2018-10-21T04:01:12.480Z,15.87
2018-10-21T04:03:40.020Z,15.07
2018-10-21T04:06:07.581Z,14.87
2018-10-21T04:08:35.141Z,16.27
2018-10-21T04:11:02.700Z,15.00
2018-10-21T04:13:30.264Z,14.40
2018-10-21T04:15:57.848Z,15.10
2018-10-21T04:18:25.348Z,14.80
2018-10-21T04:20:52.892Z,15.40
2018-10-21T04:23:20.428Z,16.53
2018-10-21T04:25:47.947Z,17.47
2018-10-21T04:28:15.557Z,16.13
2018-10-21T04:30:43.291Z,15.50
2018-10-21T04:33:16.920Z,15.50
2018-10-21T04:35:44.469Z,16.10
2018-10-21T04:38:31.884Z,14.77
2018-10-21T04:40:59.419Z,15.30
2018-10-21T04:43:26.960Z,14.87
2018-10-21T04:45:54.530Z,14.80
2018-10-21T04:48:21.988Z,14.60
2018-10-21T04:50:49.503Z,15.00
2018-10-21T04:53:17.045Z,15.20
2018-10-21T04:55:44.563Z,15.57
2018-10-21T04:58:12.207Z,14.70
2018-10-21T05:00:39.736Z,15.03
2018-10-21T05:03:07.211Z,14.90
2018-10-21T05:05:34.711Z,14.80
2018-10-21T05:08:02.215Z,14.40
2018-10-21T05:10:31.707Z,14.43
2018-10-21T05:12:59.239Z,14.77
2018-10-21T05:15:27.990Z,14.43
2018-10-21T05:17:55.581Z,14.57
2018-10-21T05:20:23.119Z,13.97
2018-10-21T05:22:50.632Z,15.57
2018-10-21T05:25:18.196Z,15.17
2018-10-21T05:27:45.752Z,14.50
2018-10-21T05:30:13.728Z,14.33
2018-10-21T05:32:41.588Z,14.57
2018-10-21T05:35:10.937Z,15.57
2018-10-21T05:37:38.850Z,14.43
2018-10-21T05:40:09.337Z,14.77
2018-10-21T05:42:36.784Z,13.83
2018-10-21T05:45:05.232Z,14.73
2018-10-21T05:47:33.311Z,14.53
2018-10-21T05:50:00.860Z,15.23
2018-10-21T05:52:28.400Z,15.27
2018-10-21T05:54:55.936Z,14.73
2018-10-21T05:57:23.487Z,15.07
2018-10-21T05:59:51.045Z,15.07
2018-10-21T06:02:18.587Z,14.53
2018-10-21T06:04:46.144Z,15.57
2018-10-21T06:07:13.688Z,15.63
2018-10-21T06:09:41.252Z,15.53
2018-10-21T06:12:08.805Z,16.50
2018-10-21T06:14:36.360Z,15.77
2018-10-21T06:17:13.096Z,16.60
2018-10-21T06:19:44.504Z,16.00
2018-10-21T06:22:12.191Z,15.70
2018-10-21T06:24:39.659Z,15.93
2018-10-21T06:27:07.198Z,16.83
2018-10-21T06:29:34.735Z,16.87
2018-10-21T06:32:02.288Z,15.63
2018-10-21T06:34:29.812Z,16.47
2018-10-21T06:36:57.339Z,15.53
2018-10-21T06:39:24.880Z,15.00
2018-10-21T06:41:52.438Z,15.40
2018-10-21T06:44:19.988Z,15.43
2018-10-21T06:46:47.524Z,14.90
2018-10-21T06:49:15.028Z,15.37
2018-10-21T06:51:42.544Z,15.10
2018-10-21T06:54:10.064Z,15.60
2018-10-21T06:56:37.661Z,15.67
2018-10-21T06:59:05.387Z,15.80
2018-10-21T07:01:33.660Z,16.00
2018-10-21T07:04:01.256Z,16.20
2018-10-21T07:06:29.323Z,15.83
2018-10-21T07:08:59.369Z,15.73
2018-10-21T07:11:26.894Z,16.07
2018-10-21T07:13:54.403Z,15.17
2018-10-21T07:16:22.017Z,16.13
2018-10-21T07:18:49.925Z,14.73
2018-10-21T07:21:17.782Z,15.83
2018-10-21T07:23:45.541Z,14.83
2018-10-21T07:26:13.060Z,14.73
2018-10-21T07:28:40.584Z,15.53
2018-10-21T07:31:08.089Z,15.07
2018-10-21T07:33:35.580Z,14.47
2018-10-21T07:36:03.360Z,14.80
2018-10-21T07:38:30.859Z,15.40
2018-10-21T07:40:58.377Z,15.40
2018-10-21T07:43:25.890Z,14.50
2018-10-21T07:45:53.458Z,15.57
2018-10-21T07:48:21.014Z,15.47
2018-10-21T07:50:48.569Z,15.43
2018-10-21T07:53:16.120Z,14.87
2018-10-21T07:55:43.740Z,16.00
2018-10-21T07:58:11.637Z,15.73
2018-10-21T08:00:39.201Z,15.67
2018-10-21T08:03:07.000Z,13.87
2018-10-21T08:05:52.000Z,15.87
2018-10-21T08:08:20.860Z,15.60
2018-10-21T08:10:48.439Z,15.17
2018-10-21T08:13:18.167Z,15.17
2018-10-21T08:15:45.821Z,15.63
2018-10-21T08:18:14.079Z,15.23
2018-10-21T08:20:42.770Z,15.07
2018-10-21T08:23:11.647Z,15.10
2018-10-21T08:25:39.284Z,14.57
2018-10-21T08:28:08.883Z,15.27
2018-10-21T08:30:36.466Z,14.83
2018-10-21T08:33:04.701Z,15.17
2018-10-21T08:35:32.275Z,15.17
2018-10-21T08:37:59.851Z,14.20
2018-10-21T08:40:27.667Z,14.97
2018-10-21T08:42:55.203Z,15.83
2018-10-21T08:45:22.972Z,15.03
2018-10-21T08:47:50.524Z,14.63
2018-10-21T08:50:18.064Z,14.40
2018-10-21T08:52:45.619Z,14.73
2018-10-21T08:55:13.201Z,15.57
2018-10-21T08:57:40.980Z,15.33
2018-10-21T09:00:11.811Z,15.30
2018-10-21T09:02:39.980Z,16.00
2018-10-21T09:05:09.296Z,16.57
2018-10-21T09:07:36.832Z,16.00
2018-10-21T09:10:05.857Z,16.73
2018-10-21T09:12:33.424Z,17.23
2018-10-21T09:15:01.050Z,17.73
2018-10-21T09:17:28.550Z,18.13
2018-10-21T09:19:56.208Z,17.43
2018-10-21T09:22:23.748Z,17.23
2018-10-21T09:24:51.297Z,16.77
2018-10-21T09:27:18.853Z,17.37
2018-10-21T09:29:46.401Z,18.67
2018-10-21T09:32:13.944Z,17.43
2018-10-21T09:34:41.485Z,17.83
2018-10-21T09:37:09.067Z,17.33
2018-10-21T09:39:36.600Z,17.33
2018-10-21T09:42:04.364Z,16.03
2018-10-21T09:44:31.906Z,17.03
2018-10-21T09:46:59.485Z,17.10
2018-10-21T09:49:27.070Z,16.15
2018-10-21T09:51:54.646Z,17.07
2018-10-21T09:54:22.180Z,16.67
2018-10-21T09:56:49.728Z,17.10
2018-10-21T09:59:17.292Z,16.35
2018-10-21T10:01:50.708Z,16.95
2018-10-21T10:04:18.303Z,17.20
2018-10-21T10:06:45.856Z,16.62
2018-10-21T10:09:13.628Z,17.80
2018-10-21T10:11:42.008Z,17.52
2018-10-21T10:14:09.728Z,16.85
2018-10-21T10:16:37.504Z,16.23
2018-10-21T10:19:05.249Z,15.70
2018-10-21T10:21:32.820Z,16.55
2018-10-21T10:24:00.554Z,16.62
2018-10-21T10:26:28.096Z,15.40
2018-10-21T10:28:55.635Z,15.40
2018-10-21T10:31:23.188Z,14.90
2018-10-21T10:33:50.723Z,15.85
2018-10-21T10:36:18.391Z,14.63
2018-10-21T10:38:45.857Z,14.58
2018-10-21T10:41:13.451Z,14.60
2018-10-21T10:43:40.988Z,15.05
2018-10-21T10:46:08.529Z,12.30
2018-10-21T10:48:36.036Z,12.60
2018-10-21T10:51:03.555Z,13.32
2018-10-21T10:53:31.077Z,12.75
2018-10-21T10:55:58.601Z,12.50
2018-10-21T10:58:26.109Z,12.43
2018-10-21T11:00:53.654Z,13.75
2018-10-21T11:03:21.158Z,12.70
2018-10-21T11:05:48.668Z,12.18
2018-10-21T11:08:16.185Z,10.78
2018-10-21T11:10:43.720Z,10.30
2018-10-21T11:13:11.360Z,8.30
2018-10-21T11:15:38.817Z,8.03
2018-10-21T11:18:06.356Z,5.87
2018-10-21T11:20:33.909Z,7.47
2018-10-21T11:23:01.468Z,7.03
2018-10-21T11:25:29.032Z,6.70
2018-10-21T11:27:56.607Z,6.70
2018-10-21T11:30:24.153Z,6.05
2018-10-21T11:32:51.721Z,5.92
2018-10-21T11:35:19.275Z,4.58
2018-10-21T11:37:47.083Z,4.47
2018-10-21T11:40:14.459Z,5.10
2018-10-21T11:42:41.984Z,4.58
2018-10-21T11:45:09.609Z,8.13
2018-10-21T11:47:37.131Z,7.97
2018-10-21T11:50:05.648Z,7.65
2018-10-21T11:52:33.193Z,7.55
2018-10-21T11:55:00.703Z,8.20
2018-10-21T11:57:28.224Z,8.80
2018-10-21T11:59:55.736Z,8.95
2018-10-21T12:02:23.267Z,8.40
2018-10-21T12:04:50.775Z,8.40
2018-10-21T12:07:18.335Z,7.50
2018-10-21T12:09:45.800Z,7.50
2018-10-21T12:12:13.308Z,7.05
2018-10-21T12:14:40.811Z,7.05
2018-10-21T12:17:08.317Z,6.42
2018-10-21T12:19:35.828Z,6.33
2018-10-21T12:22:03.536Z,6.12
2018-10-21T12:24:31.036Z,6.83
2018-10-21T12:26:58.557Z,6.95
2018-10-21T12:29:26.051Z,6.33
2018-10-21T12:31:53.566Z,5.90
2018-10-21T12:34:21.073Z,5.87
2018-10-21T12:36:48.604Z,5.85
2018-10-21T12:39:22.144Z,5.42
2018-10-21T12:41:49.655Z,5.35
2018-10-21T12:44:17.165Z,4.72
2018-10-21T12:46:44.683Z,6.00
2018-10-21T12:49:12.243Z,5.33
2018-10-21T12:51:39.699Z,5.35
2018-10-21T12:54:07.320Z,5.55
2018-10-21T12:56:34.719Z,5.37
2018-10-21T12:59:02.245Z,4.47
2018-10-21T13:01:29.799Z,4.47
2018-10-21T13:03:57.480Z,4.40
2018-10-21T13:06:25.017Z,4.50
2018-10-21T13:08:52.536Z,4.37
2018-10-21T13:11:20.048Z,4.87
2018-10-21T13:13:47.567Z,4.78
2018-10-21T13:16:15.131Z,4.17
2018-10-21T13:18:42.589Z,4.45
2018-10-21T13:21:10.091Z,3.87
2018-10-21T13:23:37.605Z,3.80
2018-10-21T13:26:05.113Z,3.80
2018-10-21T13:28:32.624Z,4.30
2018-10-21T13:31:00.186Z,4.03
2018-10-21T13:33:27.680Z,3.40
2018-10-21T13:35:55.188Z,3.60
2018-10-21T13:38:22.712Z,3.85
2018-10-21T13:40:50.228Z,4.30
2018-10-21T13:43:17.834Z,4.17
2018-10-21T13:45:45.340Z,3.70
2018-10-21T13:48:12.899Z,4.00
2018-10-21T13:50:40.563Z,3.70
2018-10-21T13:53:08.194Z,3.72
2018-10-21T13:55:36.744Z,3.77
2018-10-21T13:58:04.849Z,3.90
2018-10-21T14:00:32.461Z,3.70
2018-10-21T14:02:59.980Z,3.30
2018-10-21T14:05:27.524Z,3.52
2018-10-21T14:07:55.097Z,3.40
2018-10-21T14:10:22.656Z,3.15
2018-10-21T14:12:50.183Z,3.42
2018-10-21T14:15:17.813Z,3.27
2018-10-21T14:17:45.307Z,3.50
2018-10-21T14:20:12.872Z,3.35
2018-10-21T14:22:40.428Z,3.55
2018-10-21T14:25:08.077Z,3.35
2018-10-21T14:27:35.832Z,3.45
2018-10-21T14:30:04.722Z,3.58
2018-10-21T14:32:32.203Z,3.00
2018-10-21T14:34:59.749Z,3.17
2018-10-21T14:37:27.363Z,3.17
2018-10-21T14:39:54.916Z,3.25
2018-10-21T14:42:22.473Z,3.20
2018-10-21T14:44:50.023Z,3.22
2018-10-21T14:47:17.593Z,3.35
2018-10-21T14:49:45.145Z,3.62
2018-10-21T14:52:12.700Z,3.60
2018-10-21T14:54:40.260Z,3.90
2018-10-21T14:57:07.965Z,3.10
2018-10-21T14:59:35.461Z,3.37
2018-10-21T15:02:03.241Z,3.62
2018-10-21T15:04:30.793Z,3.40
2018-10-21T15:06:58.372Z,5.85
2018-10-21T15:09:25.936Z,4.97
2018-10-21T15:11:53.460Z,4.40
2018-10-21T15:14:21.024Z,3.92
2018-10-21T15:16:48.585Z,3.72
2018-10-21T15:19:16.136Z,3.30
2018-10-21T15:21:43.688Z,3.92
2018-10-21T15:24:11.268Z,3.35
2018-10-21T15:26:38.812Z,3.30
2018-10-21T15:29:06.417Z,2.80
2018-10-21T15:31:33.957Z,3.13
2018-10-21T15:34:01.576Z,3.23
2018-10-21T15:36:29.114Z,3.03
2018-10-21T15:38:56.703Z,3.33
2018-10-21T15:41:24.271Z,3.40
2018-10-21T15:43:51.842Z,3.40
2018-10-21T15:46:19.585Z,3.30
2018-10-21T15:48:47.125Z,3.73
2018-10-21T15:51:14.627Z,4.90
2018-10-21T15:53:42.160Z,4.77
2018-10-21T15:56:09.764Z,4.30
2018-10-21T15:58:37.228Z,4.27
2018-10-21T16:01:05.024Z,4.07
2018-10-21T16:03:32.561Z,4.00
2018-10-21T16:06:00.078Z,3.80
2018-10-21T16:08:27.592Z,3.87
2018-10-21T16:10:55.120Z,4.10
2018-10-21T16:13:22.648Z,3.93
2018-10-21T16:15:50.191Z,4.60
2018-10-21T16:18:17.698Z,5.97
2018-10-21T16:20:45.209Z,5.57
2018-10-21T16:23:12.733Z,5.93
2018-10-21T16:25:40.348Z,6.93
2018-10-21T16:28:07.820Z,7.50
2018-10-21T16:30:35.329Z,7.47
2018-10-21T16:33:03.055Z,6.43
2018-10-21T16:35:30.560Z,6.27
2018-10-21T16:37:58.054Z,7.47
2018-10-21T16:40:25.567Z,8.03
2018-10-21T16:42:53.063Z,7.53
2018-10-21T16:45:20.591Z,5.53
2018-10-21T16:47:48.107Z,5.37
2018-10-21T16:50:16.350Z,4.23
2018-10-21T16:52:44.632Z,4.77
2018-10-21T16:55:12.696Z,4.10
2018-10-21T16:57:40.278Z,3.90
2018-10-21T17:00:12.414Z,3.93
2018-10-21T17:02:40.073Z,3.57
2018-10-21T17:05:07.902Z,3.70
2018-10-21T17:07:35.707Z,3.83
2018-10-21T17:10:03.582Z,4.20
2018-10-21T17:12:30.747Z,4.23
2018-10-21T17:14:58.285Z,5.00
2018-10-21T17:17:25.767Z,4.53
2018-10-21T17:19:53.283Z,3.97
2018-10-21T17:22:20.776Z,4.30
2018-10-21T17:24:48.636Z,3.90
2018-10-21T17:27:16.164Z,4.23
2018-10-21T17:29:43.668Z,5.20
2018-10-21T17:32:11.170Z,6.00
2018-10-21T17:34:38.686Z,5.63
2018-10-21T17:37:06.339Z,5.90
2018-10-21T17:39:33.787Z,5.83
2018-10-21T17:42:01.816Z,5.27
2018-10-21T17:44:29.327Z,5.33
2018-10-21T17:46:56.881Z,6.13
2018-10-21T17:49:24.420Z,5.50
2018-10-21T17:51:51.957Z,6.13
2018-10-21T17:54:19.496Z,6.27
2018-10-21T17:56:52.835Z,6.27
2018-10-21T17:59:26.959Z,7.57
2018-10-21T18:04:56.481Z,7.07
2018-10-21T18:07:24.063Z,7.53
2018-10-21T18:09:55.281Z,7.37
2018-10-21T18:12:22.794Z,7.70
2018-10-21T18:14:50.327Z,6.90
2018-10-21T18:17:17.861Z,6.13
2018-10-21T18:19:45.424Z,6.77
2018-10-21T18:22:13.031Z,6.30
2018-10-21T18:24:47.234Z,6.70
2018-10-21T18:27:14.752Z,6.67
2018-10-21T18:29:42.312Z,6.17
2018-10-21T18:32:10.191Z,6.47
2018-10-21T18:34:37.739Z,6.67
2018-10-21T18:37:28.852Z,6.23
2018-10-21T18:39:56.410Z,6.90
2018-10-21T18:42:23.952Z,6.57
2018-10-21T18:44:54.664Z,6.97
2018-10-21T18:47:22.186Z,7.40
2018-10-21T18:49:49.695Z,8.70
2018-10-21T18:52:17.226Z,8.53
2018-10-21T18:54:44.736Z,10.17
2018-10-21T18:57:12.444Z,10.30
2018-10-21T18:59:39.953Z,9.10
2018-10-21T19:02:07.632Z,8.77
2018-10-21T19:04:35.153Z,8.53
2018-10-21T19:07:02.725Z,9.03
2018-10-21T19:09:30.214Z,9.43
2018-10-21T19:11:57.712Z,10.13
2018-10-21T19:14:25.246Z,10.07
2018-10-21T19:16:52.750Z,11.40
2018-10-21T19:19:20.276Z,11.23
2018-10-21T19:21:47.790Z,11.73
2018-10-21T19:24:15.350Z,11.87
2018-10-21T19:26:42.860Z,12.80
2018-10-21T19:29:10.359Z,14.23
2018-10-21T19:31:37.946Z,14.60
2018-10-21T19:34:05.499Z,15.23
2018-10-21T19:36:33.010Z,15.40
2018-10-21T19:39:00.521Z,14.07
2018-10-21T19:41:28.025Z,15.47
2018-10-21T19:43:55.520Z,15.10
2018-10-21T19:46:23.027Z,16.37
2018-10-21T19:48:50.531Z,19.33
2018-10-21T19:51:18.127Z,19.50
2018-10-21T19:53:45.660Z,20.00
2018-10-21T19:56:13.174Z,18.93
2018-10-21T19:58:40.729Z,20.93
2018-10-21T20:01:08.273Z,20.80
2018-10-21T20:03:35.736Z,21.17
2018-10-21T20:06:03.248Z,21.57
2018-10-21T20:08:30.800Z,19.97
2018-10-21T20:10:58.304Z,19.70
2018-10-21T20:13:25.803Z,19.63
2018-10-21T20:15:53.318Z,18.23
2018-10-21T20:18:20.901Z,19.07
2018-10-21T20:20:48.339Z,19.57
2018-10-21T20:23:15.848Z,20.80
2018-10-21T20:25:43.355Z,21.03
2018-10-21T20:28:10.933Z,21.23
2018-10-21T20:31:05.617Z,21.80
2018-10-21T20:33:33.087Z,20.77
2018-10-21T20:36:22.453Z,21.07
2018-10-21T20:38:49.916Z,23.07
2018-10-21T20:41:39.210Z,22.70
2018-10-21T20:44:06.693Z,22.50
2018-10-21T20:46:34.222Z,22.20
2018-10-21T20:49:01.720Z,22.17
2018-10-21T20:51:29.357Z,22.67
2018-10-21T20:53:56.786Z,21.97
2018-10-21T20:56:24.275Z,21.17
2018-10-21T20:58:51.789Z,22.97
2018-10-21T21:01:19.287Z,21.23
2018-10-21T21:03:46.771Z,22.63
2018-10-21T21:06:14.342Z,23.83
2018-10-21T21:08:41.799Z,23.60
2018-10-21T21:11:09.987Z,23.63
2018-10-21T21:13:37.492Z,23.17
2018-10-21T21:16:05.428Z,23.00
2018-10-21T21:18:32.936Z,22.23
2018-10-21T21:21:00.466Z,22.83
2018-10-21T21:23:27.976Z,22.13
2018-10-21T21:25:55.487Z,22.20
2018-10-21T21:28:23.063Z,23.17
2018-10-21T21:30:50.572Z,24.00
2018-10-21T21:33:18.147Z,23.97
2018-10-21T21:35:45.668Z,23.33
2018-10-21T21:38:13.172Z,23.33
2018-10-21T21:40:40.912Z,22.77
2018-10-21T21:43:08.416Z,23.20
2018-10-21T21:45:35.964Z,23.93
2018-10-21T21:48:04.018Z,23.67
2018-10-21T21:50:31.528Z,24.80
2018-10-21T21:52:59.063Z,24.27
2018-10-21T21:55:26.565Z,22.90
2018-10-21T21:57:54.123Z,23.33
2018-10-21T22:00:21.600Z,24.63
2018-10-21T22:02:49.114Z,24.63
2018-10-21T22:05:16.644Z,23.63
2018-10-21T22:07:45.247Z,24.43
2018-10-21T22:10:42.452Z,24.90
2018-10-21T22:13:09.948Z,24.07
2018-10-21T22:15:37.448Z,23.90
2018-10-21T22:18:05.093Z,24.97
2018-10-21T22:20:32.588Z,25.37
2018-10-21T22:23:00.105Z,26.20
2018-10-21T22:25:27.613Z,25.13
2018-10-21T22:27:55.194Z,26.13
2018-10-21T22:30:22.668Z,27.70
2018-10-21T22:32:50.171Z,25.20
2018-10-21T22:35:17.676Z,26.83
2018-10-21T22:37:45.192Z,26.07
2018-10-21T22:40:12.781Z,23.30
2018-10-21T22:42:40.223Z,23.43
2018-10-21T22:45:08.452Z,21.97
2018-10-21T22:50:11.145Z,20.77
2018-10-21T22:52:38.783Z,19.80
2018-10-21T22:55:06.896Z,19.83
2018-10-21T22:57:34.468Z,19.80
2018-10-21T23:00:02.105Z,19.93
2018-10-21T23:02:29.604Z,20.93
2018-10-21T23:04:57.179Z,18.53
2018-10-21T23:07:24.721Z,19.70
2018-10-21T23:09:52.243Z,19.90
2018-10-21T23:12:19.807Z,19.60
2018-10-21T23:14:47.372Z,20.00
2018-10-21T23:17:14.925Z,21.87
2018-10-21T23:19:49.709Z,21.70
2018-10-21T23:22:17.396Z,19.80
2018-10-21T23:24:44.860Z,19.00
2018-10-21T23:27:12.935Z,19.27
2018-10-21T23:29:41.204Z,19.90
2018-10-21T23:32:08.783Z,19.13
2018-10-21T23:34:36.316Z,18.03
2018-10-21T23:37:04.148Z,18.23
2018-10-21T23:39:31.692Z,18.70
2018-10-21T23:42:00.022Z,18.53
2018-10-21T23:44:27.553Z,18.63
2018-10-21T23:46:55.108Z,20.03
2018-10-21T23:49:22.666Z,20.50
2018-10-21T23:51:50.228Z,20.43
2018-10-21T23:54:17.832Z,19.57
2018-10-21T23:56:45.352Z,20.23
2018-10-21T23:59:12.896Z,19.47
